sensor_id;sensor_type;location;lat;lon;timestamp;temperature;humidity
45549;DHT22;31270;48.328;10.096;2022-12-18T00:01:57;-6.10;99.90
45549;DHT22;31270;48.328;10.096;2022-12-18T00:04:25;-6.10;99.90
45549;DHT22;31270;48.328;10.096;2022-12-18T00:06:51;-6.10;99.90
45549;DHT22;31270;48.328;10.096;2022-12-18T00:09:17;-6.10;99.90
45549;DHT22;31270;48.328;10.096;2022-12-18T00:11:43;-6.20;99.90
45549;DHT22;31270;48.328;10.096;2022-12-18T00:14:11;-6.20;99.90
45549;DHT22;31270;48.328;10.096;2022-12-18T00:16:37;-6.10;99.90
45549;DHT22;31270;48.328;10.096;2022-12-18T00:19:04;-6.00;99.90
45549;DHT22;31270;48.328;10.096;2022-12-18T00:21:31;-6.00;99.90
45549;DHT22;31270;48.328;10.096;2022-12-18T00:23:58;-6.00;99.90
45549;DHT22;31270;48.328;10.096;2022-12-18T00:26:30;-6.10;99.90
45549;DHT22;31270;48.328;10.096;2022-12-18T00:29:04;-6.00;99.90
45549;DHT22;31270;48.328;10.096;2022-12-18T00:31:31;-6.00;99.90
45549;DHT22;31270;48.328;10.096;2022-12-18T00:33:57;-6.10;99.90
45549;DHT22;31270;48.328;10.096;2022-12-18T00:36:28;-6.00;99.90
45549;DHT22;31270;48.328;10.096;2022-12-18T00:38:58;-6.00;99.90
45549;DHT22;31270;48.328;10.096;2022-12-18T00:41:25;-6.00;99.90
45549;DHT22;31270;48.328;10.096;2022-12-18T00:44:15;-6.00;99.90
45549;DHT22;31270;48.328;10.096;2022-12-18T00:46:41;-6.00;99.90
45549;DHT22;31270;48.328;10.096;2022-12-18T00:49:07;-6.00;99.90
45549;DHT22;31270;48.328;10.096;2022-12-18T00:51:33;-6.10;99.90
45549;DHT22;31270;48.328;10.096;2022-12-18T00:53:59;-6.10;99.90
45549;DHT22;31270;48.328;10.096;2022-12-18T00:56:25;-6.10;99.90
45549;DHT22;31270;48.328;10.096;2022-12-18T00:58:51;-6.10;99.90
45549;DHT22;31270;48.328;10.096;2022-12-18T01:01:17;-6.10;99.90
45549;DHT22;31270;48.328;10.096;2022-12-18T01:03:42;-6.10;99.90
45549;DHT22;31270;48.328;10.096;2022-12-18T01:06:11;-6.10;99.90
45549;DHT22;31270;48.328;10.096;2022-12-18T01:08:38;-6.10;99.90
45549;DHT22;31270;48.328;10.096;2022-12-18T01:11:08;-6.10;99.90
45549;DHT22;31270;48.328;10.096;2022-12-18T01:13:34;-6.10;99.90
45549;DHT22;31270;48.328;10.096;2022-12-18T01:16:00;-6.00;99.90
45549;DHT22;31270;48.328;10.096;2022-12-18T01:18:25;-6.10;99.90
45549;DHT22;31270;48.328;10.096;2022-12-18T01:20:51;-6.20;99.90
45549;DHT22;31270;48.328;10.096;2022-12-18T01:23:16;-6.20;99.90
45549;DHT22;31270;48.328;10.096;2022-12-18T01:25:42;-6.20;99.90
45549;DHT22;31270;48.328;10.096;2022-12-18T01:28:08;-6.20;99.90
45549;DHT22;31270;48.328;10.096;2022-12-18T01:30:33;-6.10;99.90
45549;DHT22;31270;48.328;10.096;2022-12-18T01:32:59;-6.20;99.90
45549;DHT22;31270;48.328;10.096;2022-12-18T01:35:25;-6.20;99.90
45549;DHT22;31270;48.328;10.096;2022-12-18T01:37:54;-6.30;99.90
45549;DHT22;31270;48.328;10.096;2022-12-18T01:40:20;-6.20;99.90
45549;DHT22;31270;48.328;10.096;2022-12-18T01:42:52;-6.20;99.90
45549;DHT22;31270;48.328;10.096;2022-12-18T01:47:58;-6.20;99.90
45549;DHT22;31270;48.328;10.096;2022-12-18T01:50:32;-6.30;99.90
45549;DHT22;31270;48.328;10.096;2022-12-18T01:53:14;-6.20;99.90
45549;DHT22;31270;48.328;10.096;2022-12-18T01:55:48;-6.10;99.90
45549;DHT22;31270;48.328;10.096;2022-12-18T01:58:15;-6.20;99.90
45549;DHT22;31270;48.328;10.096;2022-12-18T02:00:42;-6.20;99.90
45549;DHT22;31270;48.328;10.096;2022-12-18T02:03:08;-6.30;99.90
45549;DHT22;31270;48.328;10.096;2022-12-18T02:08:22;-6.20;99.90
45549;DHT22;31270;48.328;10.096;2022-12-18T02:19:28;-6.10;99.90
45549;DHT22;31270;48.328;10.096;2022-12-18T02:25:14;-6.00;99.90
45549;DHT22;31270;48.328;10.096;2022-12-18T02:27:45;-6.10;99.90
45549;DHT22;31270;48.328;10.096;2022-12-18T02:30:13;-6.20;99.90
45549;DHT22;31270;48.328;10.096;2022-12-18T02:32:46;-6.10;99.90
45549;DHT22;31270;48.328;10.096;2022-12-18T02:35:17;-6.20;99.90
45549;DHT22;31270;48.328;10.096;2022-12-18T02:37:45;-6.20;99.90
45549;DHT22;31270;48.328;10.096;2022-12-18T02:40:12;-6.30;99.90
45549;DHT22;31270;48.328;10.096;2022-12-18T02:42:39;-6.30;99.90
45549;DHT22;31270;48.328;10.096;2022-12-18T02:45:06;-6.20;99.90
45549;DHT22;31270;48.328;10.096;2022-12-18T02:47:38;-6.20;99.90
45549;DHT22;31270;48.328;10.096;2022-12-18T02:50:19;-6.10;99.90
45549;DHT22;31270;48.328;10.096;2022-12-18T02:58:30;-6.10;99.90
45549;DHT22;31270;48.328;10.096;2022-12-18T03:01:03;-6.10;99.90
45549;DHT22;31270;48.328;10.096;2022-12-18T03:06:33;-6.20;99.90
45549;DHT22;31270;48.328;10.096;2022-12-18T03:09:13;-6.10;99.90
45549;DHT22;31270;48.328;10.096;2022-12-18T03:11:43;-6.10;99.90
45549;DHT22;31270;48.328;10.096;2022-12-18T03:14:30;-6.20;99.90
45549;DHT22;31270;48.328;10.096;2022-12-18T03:17:02;-6.20;99.90
45549;DHT22;31270;48.328;10.096;2022-12-18T03:19:32;-6.30;99.90
45549;DHT22;31270;48.328;10.096;2022-12-18T03:22:02;-6.20;99.90
45549;DHT22;31270;48.328;10.096;2022-12-18T03:24:29;-6.20;99.90
45549;DHT22;31270;48.328;10.096;2022-12-18T03:27:01;-6.20;99.90
45549;DHT22;31270;48.328;10.096;2022-12-18T03:29:31;-6.20;99.90
45549;DHT22;31270;48.328;10.096;2022-12-18T03:32:03;-6.20;99.90
45549;DHT22;31270;48.328;10.096;2022-12-18T03:34:32;-6.20;99.90
45549;DHT22;31270;48.328;10.096;2022-12-18T03:36:59;-6.20;99.90
45549;DHT22;31270;48.328;10.096;2022-12-18T03:39:25;-6.20;99.90
45549;DHT22;31270;48.328;10.096;2022-12-18T03:42:15;-6.20;99.90
45549;DHT22;31270;48.328;10.096;2022-12-18T03:45:02;-6.20;99.90
45549;DHT22;31270;48.328;10.096;2022-12-18T03:47:52;-6.10;99.90
45549;DHT22;31270;48.328;10.096;2022-12-18T03:50:56;-6.10;99.90
45549;DHT22;31270;48.328;10.096;2022-12-18T03:53:48;-6.10;99.90
45549;DHT22;31270;48.328;10.096;2022-12-18T03:56:15;-6.10;99.90
45549;DHT22;31270;48.328;10.096;2022-12-18T03:58:43;-6.00;99.90
45549;DHT22;31270;48.328;10.096;2022-12-18T04:01:12;-6.00;99.90
45549;DHT22;31270;48.328;10.096;2022-12-18T04:03:39;-6.00;99.90
45549;DHT22;31270;48.328;10.096;2022-12-18T04:06:06;-6.20;99.90
45549;DHT22;31270;48.328;10.096;2022-12-18T04:08:32;-6.30;99.90
45549;DHT22;31270;48.328;10.096;2022-12-18T04:11:00;-6.30;99.90
45549;DHT22;31270;48.328;10.096;2022-12-18T04:13:34;-6.30;99.90
45549;DHT22;31270;48.328;10.096;2022-12-18T04:16:00;-6.40;99.90
45549;DHT22;31270;48.328;10.096;2022-12-18T04:18:26;-6.30;99.90
45549;DHT22;31270;48.328;10.096;2022-12-18T04:20:52;-6.30;99.90
45549;DHT22;31270;48.328;10.096;2022-12-18T04:23:18;-6.30;99.90
45549;DHT22;31270;48.328;10.096;2022-12-18T04:25:43;-6.30;99.90
45549;DHT22;31270;48.328;10.096;2022-12-18T04:28:09;-6.30;99.90
45549;DHT22;31270;48.328;10.096;2022-12-18T04:30:34;-6.40;99.90
45549;DHT22;31270;48.328;10.096;2022-12-18T04:33:00;-6.40;99.90
45549;DHT22;31270;48.328;10.096;2022-12-18T04:35:26;-6.30;99.90
45549;DHT22;31270;48.328;10.096;2022-12-18T04:37:51;-6.30;99.90
45549;DHT22;31270;48.328;10.096;2022-12-18T04:40:17;-6.40;99.90
45549;DHT22;31270;48.328;10.096;2022-12-18T04:42:43;-6.30;99.90
45549;DHT22;31270;48.328;10.096;2022-12-18T04:45:09;-6.30;99.90
45549;DHT22;31270;48.328;10.096;2022-12-18T04:47:35;-6.30;99.90
45549;DHT22;31270;48.328;10.096;2022-12-18T04:50:00;-6.30;99.90
45549;DHT22;31270;48.328;10.096;2022-12-18T04:52:26;-6.40;99.90
45549;DHT22;31270;48.328;10.096;2022-12-18T04:54:52;-6.20;99.90
45549;DHT22;31270;48.328;10.096;2022-12-18T04:57:18;-6.30;99.90
45549;DHT22;31270;48.328;10.096;2022-12-18T04:59:44;-6.40;99.90
45549;DHT22;31270;48.328;10.096;2022-12-18T05:02:09;-6.40;99.90
45549;DHT22;31270;48.328;10.096;2022-12-18T05:04:35;-6.50;99.90
45549;DHT22;31270;48.328;10.096;2022-12-18T05:07:01;-6.40;99.90
45549;DHT22;31270;48.328;10.096;2022-12-18T05:09:26;-6.40;99.90
45549;DHT22;31270;48.328;10.096;2022-12-18T05:11:52;-6.40;99.90
45549;DHT22;31270;48.328;10.096;2022-12-18T05:14:18;-6.40;99.90
45549;DHT22;31270;48.328;10.096;2022-12-18T05:16:43;-6.40;99.90
45549;DHT22;31270;48.328;10.096;2022-12-18T05:19:09;-6.40;99.90
45549;DHT22;31270;48.328;10.096;2022-12-18T05:21:35;-6.20;99.90
45549;DHT22;31270;48.328;10.096;2022-12-18T05:24:00;-6.40;99.90
45549;DHT22;31270;48.328;10.096;2022-12-18T05:26:26;-6.40;99.90
45549;DHT22;31270;48.328;10.096;2022-12-18T05:28:51;-6.40;99.90
45549;DHT22;31270;48.328;10.096;2022-12-18T05:31:17;-6.40;99.90
45549;DHT22;31270;48.328;10.096;2022-12-18T05:33:43;-6.40;99.90
45549;DHT22;31270;48.328;10.096;2022-12-18T05:36:09;-6.40;99.90
45549;DHT22;31270;48.328;10.096;2022-12-18T05:38:37;-6.40;99.90
45549;DHT22;31270;48.328;10.096;2022-12-18T05:41:03;-6.40;99.90
45549;DHT22;31270;48.328;10.096;2022-12-18T05:43:30;-6.40;99.90
45549;DHT22;31270;48.328;10.096;2022-12-18T05:45:56;-6.40;99.90
45549;DHT22;31270;48.328;10.096;2022-12-18T05:48:23;-6.40;99.90
45549;DHT22;31270;48.328;10.096;2022-12-18T05:50:50;-6.40;99.90
45549;DHT22;31270;48.328;10.096;2022-12-18T05:53:17;-6.40;99.90
45549;DHT22;31270;48.328;10.096;2022-12-18T05:55:45;-6.30;99.90
45549;DHT22;31270;48.328;10.096;2022-12-18T05:58:12;-6.30;99.90
45549;DHT22;31270;48.328;10.096;2022-12-18T06:00:39;-6.30;99.90
45549;DHT22;31270;48.328;10.096;2022-12-18T06:03:06;-6.30;99.90
45549;DHT22;31270;48.328;10.096;2022-12-18T06:05:40;-6.20;99.90
45549;DHT22;31270;48.328;10.096;2022-12-18T06:08:06;-6.20;99.90
45549;DHT22;31270;48.328;10.096;2022-12-18T06:10:32;-6.20;99.90
45549;DHT22;31270;48.328;10.096;2022-12-18T06:12:58;-6.20;99.90
45549;DHT22;31270;48.328;10.096;2022-12-18T06:15:25;-6.10;99.90
45549;DHT22;31270;48.328;10.096;2022-12-18T06:17:51;-6.20;99.90
45549;DHT22;31270;48.328;10.096;2022-12-18T06:20:17;-6.20;99.90
45549;DHT22;31270;48.328;10.096;2022-12-18T06:22:42;-6.30;99.90
45549;DHT22;31270;48.328;10.096;2022-12-18T06:25:08;-6.30;99.90
45549;DHT22;31270;48.328;10.096;2022-12-18T06:27:34;-6.20;99.90
45549;DHT22;31270;48.328;10.096;2022-12-18T06:30:00;-6.30;99.90
45549;DHT22;31270;48.328;10.096;2022-12-18T06:32:26;-6.30;99.90
45549;DHT22;31270;48.328;10.096;2022-12-18T06:34:52;-6.20;99.90
45549;DHT22;31270;48.328;10.096;2022-12-18T06:37:18;-6.20;99.90
45549;DHT22;31270;48.328;10.096;2022-12-18T06:39:44;-6.10;99.90
45549;DHT22;31270;48.328;10.096;2022-12-18T06:42:09;-6.20;99.90
45549;DHT22;31270;48.328;10.096;2022-12-18T06:44:36;-6.20;99.90
45549;DHT22;31270;48.328;10.096;2022-12-18T06:47:02;-6.20;99.90
45549;DHT22;31270;48.328;10.096;2022-12-18T06:49:28;-6.20;99.90
45549;DHT22;31270;48.328;10.096;2022-12-18T06:51:53;-6.10;99.90
45549;DHT22;31270;48.328;10.096;2022-12-18T06:54:19;-5.90;99.90
45549;DHT22;31270;48.328;10.096;2022-12-18T06:56:46;-6.10;99.90
45549;DHT22;31270;48.328;10.096;2022-12-18T06:59:13;-6.10;99.90
45549;DHT22;31270;48.328;10.096;2022-12-18T07:01:38;-6.10;99.90
45549;DHT22;31270;48.328;10.096;2022-12-18T07:04:04;-6.00;99.90
45549;DHT22;31270;48.328;10.096;2022-12-18T07:06:30;-6.00;99.90
45549;DHT22;31270;48.328;10.096;2022-12-18T07:09:02;-6.00;99.90
45549;DHT22;31270;48.328;10.096;2022-12-18T07:11:28;-6.10;99.90
45549;DHT22;31270;48.328;10.096;2022-12-18T07:13:53;-6.00;99.90
45549;DHT22;31270;48.328;10.096;2022-12-18T07:16:21;-6.00;99.90
45549;DHT22;31270;48.328;10.096;2022-12-18T07:18:46;-6.00;99.90
45549;DHT22;31270;48.328;10.096;2022-12-18T07:21:16;-5.90;99.90
45549;DHT22;31270;48.328;10.096;2022-12-18T07:23:41;-5.80;99.90
45549;DHT22;31270;48.328;10.096;2022-12-18T07:26:09;-6.00;99.90
45549;DHT22;31270;48.328;10.096;2022-12-18T07:28:36;-6.00;99.90
45549;DHT22;31270;48.328;10.096;2022-12-18T07:31:04;-5.90;99.90
45549;DHT22;31270;48.328;10.096;2022-12-18T07:33:30;-5.80;99.90
45549;DHT22;31270;48.328;10.096;2022-12-18T07:35:55;-5.80;99.90
45549;DHT22;31270;48.328;10.096;2022-12-18T07:38:21;-5.80;99.90
45549;DHT22;31270;48.328;10.096;2022-12-18T07:40:47;-5.80;99.90
45549;DHT22;31270;48.328;10.096;2022-12-18T07:43:13;-5.70;99.90
45549;DHT22;31270;48.328;10.096;2022-12-18T07:45:38;-5.50;99.90
45549;DHT22;31270;48.328;10.096;2022-12-18T07:48:04;-5.60;99.90
45549;DHT22;31270;48.328;10.096;2022-12-18T07:50:30;-5.60;99.90
45549;DHT22;31270;48.328;10.096;2022-12-18T07:52:56;-5.70;99.90
45549;DHT22;31270;48.328;10.096;2022-12-18T07:55:25;-5.60;99.90
45549;DHT22;31270;48.328;10.096;2022-12-18T07:57:52;-5.60;99.90
45549;DHT22;31270;48.328;10.096;2022-12-18T08:00:18;-5.60;99.90
45549;DHT22;31270;48.328;10.096;2022-12-18T08:02:44;-5.60;99.90
45549;DHT22;31270;48.328;10.096;2022-12-18T08:05:09;-5.50;99.90
45549;DHT22;31270;48.328;10.096;2022-12-18T08:07:35;-5.50;99.90
45549;DHT22;31270;48.328;10.096;2022-12-18T08:10:01;-5.50;99.90
45549;DHT22;31270;48.328;10.096;2022-12-18T08:12:26;-5.50;99.90
45549;DHT22;31270;48.328;10.096;2022-12-18T08:14:52;-5.30;99.90
45549;DHT22;31270;48.328;10.096;2022-12-18T08:17:19;-5.30;99.90
45549;DHT22;31270;48.328;10.096;2022-12-18T08:19:45;-5.30;99.90
45549;DHT22;31270;48.328;10.096;2022-12-18T08:22:12;-5.30;99.90
45549;DHT22;31270;48.328;10.096;2022-12-18T08:24:37;-5.20;99.90
45549;DHT22;31270;48.328;10.096;2022-12-18T08:27:03;-5.20;99.90
45549;DHT22;31270;48.328;10.096;2022-12-18T08:29:28;-5.10;99.90
45549;DHT22;31270;48.328;10.096;2022-12-18T08:31:55;-5.00;99.90
45549;DHT22;31270;48.328;10.096;2022-12-18T08:34:21;-5.00;99.90
45549;DHT22;31270;48.328;10.096;2022-12-18T08:36:47;-5.00;99.90
45549;DHT22;31270;48.328;10.096;2022-12-18T08:39:13;-5.00;99.90
45549;DHT22;31270;48.328;10.096;2022-12-18T08:41:38;-5.00;99.90
45549;DHT22;31270;48.328;10.096;2022-12-18T08:44:04;-4.90;99.90
45549;DHT22;31270;48.328;10.096;2022-12-18T08:46:48;-4.80;99.90
45549;DHT22;31270;48.328;10.096;2022-12-18T08:49:14;-4.70;99.90
45549;DHT22;31270;48.328;10.096;2022-12-18T08:51:40;-4.60;99.90
45549;DHT22;31270;48.328;10.096;2022-12-18T08:54:06;-4.60;99.90
45549;DHT22;31270;48.328;10.096;2022-12-18T08:56:32;-4.50;99.90
45549;DHT22;31270;48.328;10.096;2022-12-18T08:58:58;-4.50;99.90
45549;DHT22;31270;48.328;10.096;2022-12-18T09:01:24;-4.50;99.90
45549;DHT22;31270;48.328;10.096;2022-12-18T09:03:50;-4.40;99.90
45549;DHT22;31270;48.328;10.096;2022-12-18T09:06:18;-4.40;99.90
45549;DHT22;31270;48.328;10.096;2022-12-18T09:08:44;-4.40;99.90
45549;DHT22;31270;48.328;10.096;2022-12-18T09:11:19;-4.60;99.90
45549;DHT22;31270;48.328;10.096;2022-12-18T09:13:45;-4.50;99.90
45549;DHT22;31270;48.328;10.096;2022-12-18T09:16:11;-4.40;99.90
45549;DHT22;31270;48.328;10.096;2022-12-18T09:18:37;-4.50;99.90
45549;DHT22;31270;48.328;10.096;2022-12-18T09:21:16;-4.40;99.90
45549;DHT22;31270;48.328;10.096;2022-12-18T09:23:42;-4.50;99.90
45549;DHT22;31270;48.328;10.096;2022-12-18T09:26:08;-4.40;99.90
45549;DHT22;31270;48.328;10.096;2022-12-18T09:28:34;-4.40;99.90
45549;DHT22;31270;48.328;10.096;2022-12-18T09:31:04;-4.30;99.90
45549;DHT22;31270;48.328;10.096;2022-12-18T09:33:30;-4.30;99.90
45549;DHT22;31270;48.328;10.096;2022-12-18T09:35:56;-4.20;99.90
45549;DHT22;31270;48.328;10.096;2022-12-18T09:38:23;-4.10;99.90
45549;DHT22;31270;48.328;10.096;2022-12-18T09:40:51;-4.10;99.90
45549;DHT22;31270;48.328;10.096;2022-12-18T09:43:33;-4.10;99.90
45549;DHT22;31270;48.328;10.096;2022-12-18T09:46:07;-4.10;99.90
45549;DHT22;31270;48.328;10.096;2022-12-18T09:48:41;-4.00;99.90
45549;DHT22;31270;48.328;10.096;2022-12-18T09:51:17;-4.00;99.90
45549;DHT22;31270;48.328;10.096;2022-12-18T09:53:51;-4.00;99.90
45549;DHT22;31270;48.328;10.096;2022-12-18T09:56:21;-4.00;99.90
45549;DHT22;31270;48.328;10.096;2022-12-18T09:59:06;-4.00;99.90
45549;DHT22;31270;48.328;10.096;2022-12-18T10:01:36;-4.00;99.90
45549;DHT22;31270;48.328;10.096;2022-12-18T10:04:02;-4.00;99.90
45549;DHT22;31270;48.328;10.096;2022-12-18T10:06:54;-3.90;99.90
45549;DHT22;31270;48.328;10.096;2022-12-18T10:12:23;-3.80;99.90
45549;DHT22;31270;48.328;10.096;2022-12-18T10:17:45;-3.90;99.90
45549;DHT22;31270;48.328;10.096;2022-12-18T10:25:26;-3.70;99.90
45549;DHT22;31270;48.328;10.096;2022-12-18T10:28:00;-3.80;99.90
45549;DHT22;31270;48.328;10.096;2022-12-18T10:30:32;-3.70;99.90
45549;DHT22;31270;48.328;10.096;2022-12-18T10:33:01;-3.60;99.90
45549;DHT22;31270;48.328;10.096;2022-12-18T10:35:27;-3.50;99.90
45549;DHT22;31270;48.328;10.096;2022-12-18T10:40:26;-3.30;99.90
45549;DHT22;31270;48.328;10.096;2022-12-18T10:43:11;-3.40;99.90
45549;DHT22;31270;48.328;10.096;2022-12-18T10:45:37;-3.40;99.90
45549;DHT22;31270;48.328;10.096;2022-12-18T10:48:03;-3.30;99.90
45549;DHT22;31270;48.328;10.096;2022-12-18T10:50:32;-3.30;99.90
45549;DHT22;31270;48.328;10.096;2022-12-18T10:53:00;-3.20;99.90
45549;DHT22;31270;48.328;10.096;2022-12-18T10:55:53;-3.10;99.90
45549;DHT22;31270;48.328;10.096;2022-12-18T10:58:24;-3.00;99.90
45549;DHT22;31270;48.328;10.096;2022-12-18T11:01:08;-3.00;99.90
45549;DHT22;31270;48.328;10.096;2022-12-18T11:03:42;-3.10;99.90
45549;DHT22;31270;48.328;10.096;2022-12-18T11:06:12;-3.10;99.90
45549;DHT22;31270;48.328;10.096;2022-12-18T11:08:39;-3.00;99.90
45549;DHT22;31270;48.328;10.096;2022-12-18T11:11:15;-2.90;99.90
45549;DHT22;31270;48.328;10.096;2022-12-18T11:13:59;-2.80;99.90
45549;DHT22;31270;48.328;10.096;2022-12-18T11:16:26;-3.00;99.90
45549;DHT22;31270;48.328;10.096;2022-12-18T11:18:53;-3.20;99.90
45549;DHT22;31270;48.328;10.096;2022-12-18T11:21:18;-3.10;99.90
45549;DHT22;31270;48.328;10.096;2022-12-18T11:23:49;-3.10;99.90
45549;DHT22;31270;48.328;10.096;2022-12-18T11:26:15;-3.20;99.90
45549;DHT22;31270;48.328;10.096;2022-12-18T11:28:52;-3.10;99.90
45549;DHT22;31270;48.328;10.096;2022-12-18T11:31:26;-3.20;99.90
45549;DHT22;31270;48.328;10.096;2022-12-18T11:36:33;-3.00;99.90
45549;DHT22;31270;48.328;10.096;2022-12-18T11:39:07;-2.90;99.90
45549;DHT22;31270;48.328;10.096;2022-12-18T11:41:52;-2.90;99.90
45549;DHT22;31270;48.328;10.096;2022-12-18T11:44:52;-3.00;99.90
45549;DHT22;31270;48.328;10.096;2022-12-18T11:47:31;-2.80;99.90
45549;DHT22;31270;48.328;10.096;2022-12-18T11:50:01;-2.80;99.90
45549;DHT22;31270;48.328;10.096;2022-12-18T11:52:37;-2.80;99.90
45549;DHT22;31270;48.328;10.096;2022-12-18T12:00:47;-2.70;99.90
45549;DHT22;31270;48.328;10.096;2022-12-18T12:06:16;-2.80;99.90
45549;DHT22;31270;48.328;10.096;2022-12-18T12:09:25;-2.70;99.90
45549;DHT22;31270;48.328;10.096;2022-12-18T12:14:48;-2.70;99.90
45549;DHT22;31270;48.328;10.096;2022-12-18T12:17:27;-2.80;99.90
45549;DHT22;31270;48.328;10.096;2022-12-18T12:22:42;-2.80;99.90
45549;DHT22;31270;48.328;10.096;2022-12-18T12:25:37;-3.00;99.90
45549;DHT22;31270;48.328;10.096;2022-12-18T12:28:28;-2.90;99.90
45549;DHT22;31270;48.328;10.096;2022-12-18T12:31:07;-3.10;99.90
45549;DHT22;31270;48.328;10.096;2022-12-18T12:33:51;-3.40;99.90
45549;DHT22;31270;48.328;10.096;2022-12-18T12:39:09;-3.30;99.90
45549;DHT22;31270;48.328;10.096;2022-12-18T12:41:36;-3.50;99.90
45549;DHT22;31270;48.328;10.096;2022-12-18T12:44:25;-3.40;99.90
45549;DHT22;31270;48.328;10.096;2022-12-18T12:46:56;-3.30;99.90
45549;DHT22;31270;48.328;10.096;2022-12-18T12:49:27;-3.30;99.90
45549;DHT22;31270;48.328;10.096;2022-12-18T12:52:06;-3.30;99.90
45549;DHT22;31270;48.328;10.096;2022-12-18T12:54:33;-3.30;99.90
45549;DHT22;31270;48.328;10.096;2022-12-18T13:02:18;-3.00;99.90
45549;DHT22;31270;48.328;10.096;2022-12-18T13:04:49;-3.10;99.90
45549;DHT22;31270;48.328;10.096;2022-12-18T13:07:40;-3.10;99.90
45549;DHT22;31270;48.328;10.096;2022-12-18T13:12:53;-3.10;99.90
45549;DHT22;31270;48.328;10.096;2022-12-18T13:20:42;-3.20;99.90
45549;DHT22;31270;48.328;10.096;2022-12-18T13:25:50;-2.90;99.90
45549;DHT22;31270;48.328;10.096;2022-12-18T13:28:20;-3.10;99.90
45549;DHT22;31270;48.328;10.096;2022-12-18T13:30:55;-3.10;99.90
45549;DHT22;31270;48.328;10.096;2022-12-18T13:33:40;-3.00;99.90
45549;DHT22;31270;48.328;10.096;2022-12-18T13:39:10;-3.00;99.90
45549;DHT22;31270;48.328;10.096;2022-12-18T13:41:37;-3.00;99.90
45549;DHT22;31270;48.328;10.096;2022-12-18T13:46:50;-3.10;99.90
45549;DHT22;31270;48.328;10.096;2022-12-18T13:49:38;-3.20;99.90
45549;DHT22;31270;48.328;10.096;2022-12-18T13:52:16;-3.20;99.90
45549;DHT22;31270;48.328;10.096;2022-12-18T13:54:47;-3.20;99.90
45549;DHT22;31270;48.328;10.096;2022-12-18T13:57:27;-3.30;99.90
45549;DHT22;31270;48.328;10.096;2022-12-18T13:59:53;-3.30;99.90
45549;DHT22;31270;48.328;10.096;2022-12-18T14:02:28;-3.30;99.90
45549;DHT22;31270;48.328;10.096;2022-12-18T14:04:54;-3.20;99.90
45549;DHT22;31270;48.328;10.096;2022-12-18T14:07:25;-3.30;99.90
45549;DHT22;31270;48.328;10.096;2022-12-18T14:09:59;-3.30;99.90
45549;DHT22;31270;48.328;10.096;2022-12-18T14:12:31;-3.40;99.90
45549;DHT22;31270;48.328;10.096;2022-12-18T14:15:29;-3.70;99.90
45549;DHT22;31270;48.328;10.096;2022-12-18T14:20:59;-3.60;99.90
45549;DHT22;31270;48.328;10.096;2022-12-18T14:23:35;-3.60;99.90
45549;DHT22;31270;48.328;10.096;2022-12-18T14:26:03;-3.60;99.90
45549;DHT22;31270;48.328;10.096;2022-12-18T14:28:44;-3.70;99.90
45549;DHT22;31270;48.328;10.096;2022-12-18T14:31:27;-3.70;99.90
45549;DHT22;31270;48.328;10.096;2022-12-18T14:33:54;-3.70;99.90
45549;DHT22;31270;48.328;10.096;2022-12-18T14:36:25;-3.70;99.90
45549;DHT22;31270;48.328;10.096;2022-12-18T14:38:53;-3.70;99.90
45549;DHT22;31270;48.328;10.096;2022-12-18T14:41:20;-3.80;99.90
45549;DHT22;31270;48.328;10.096;2022-12-18T14:43:48;-3.90;99.90
45549;DHT22;31270;48.328;10.096;2022-12-18T14:49:00;-4.00;99.90
45549;DHT22;31270;48.328;10.096;2022-12-18T14:51:28;-4.00;99.90
45549;DHT22;31270;48.328;10.096;2022-12-18T14:53:59;-4.00;99.90
45549;DHT22;31270;48.328;10.096;2022-12-18T14:56:28;-4.10;99.90
45549;DHT22;31270;48.328;10.096;2022-12-18T14:58:55;-4.10;99.90
45549;DHT22;31270;48.328;10.096;2022-12-18T15:01:22;-4.10;99.90
45549;DHT22;31270;48.328;10.096;2022-12-18T15:03:50;-3.90;99.90
45549;DHT22;31270;48.328;10.096;2022-12-18T15:06:37;-3.90;99.90
45549;DHT22;31270;48.328;10.096;2022-12-18T15:09:23;-4.00;99.90
45549;DHT22;31270;48.328;10.096;2022-12-18T15:11:49;-4.00;99.90
45549;DHT22;31270;48.328;10.096;2022-12-18T15:16:56;-4.10;99.90
45549;DHT22;31270;48.328;10.096;2022-12-18T15:19:40;-4.20;99.90
45549;DHT22;31270;48.328;10.096;2022-12-18T15:22:36;-4.20;99.90
45549;DHT22;31270;48.328;10.096;2022-12-18T15:25:03;-4.30;99.90
45549;DHT22;31270;48.328;10.096;2022-12-18T15:27:46;-4.30;99.90
45549;DHT22;31270;48.328;10.096;2022-12-18T15:30:18;-4.30;99.90
45549;DHT22;31270;48.328;10.096;2022-12-18T15:32:45;-4.30;99.90
45549;DHT22;31270;48.328;10.096;2022-12-18T15:37:40;-4.20;99.90
45549;DHT22;31270;48.328;10.096;2022-12-18T15:40:07;-4.20;99.90
45549;DHT22;31270;48.328;10.096;2022-12-18T15:42:33;-4.30;99.90
45549;DHT22;31270;48.328;10.096;2022-12-18T15:45:17;-4.30;99.90
45549;DHT22;31270;48.328;10.096;2022-12-18T15:47:43;-4.30;99.90
45549;DHT22;31270;48.328;10.096;2022-12-18T15:50:10;-4.30;99.90
45549;DHT22;31270;48.328;10.096;2022-12-18T15:52:43;-4.40;99.90
45549;DHT22;31270;48.328;10.096;2022-12-18T15:55:13;-4.40;99.90
45549;DHT22;31270;48.328;10.096;2022-12-18T15:57:57;-4.30;99.90
45549;DHT22;31270;48.328;10.096;2022-12-18T16:00:23;-4.40;99.90
45549;DHT22;31270;48.328;10.096;2022-12-18T16:02:49;-4.40;99.90
45549;DHT22;31270;48.328;10.096;2022-12-18T16:05:16;-4.40;99.90
45549;DHT22;31270;48.328;10.096;2022-12-18T16:07:43;-4.40;99.90
45549;DHT22;31270;48.328;10.096;2022-12-18T16:10:09;-4.30;99.90
45549;DHT22;31270;48.328;10.096;2022-12-18T16:12:35;-4.40;99.90
45549;DHT22;31270;48.328;10.096;2022-12-18T16:15:01;-4.50;99.90
45549;DHT22;31270;48.328;10.096;2022-12-18T16:17:26;-4.50;99.90
45549;DHT22;31270;48.328;10.096;2022-12-18T16:19:52;-4.40;99.90
45549;DHT22;31270;48.328;10.096;2022-12-18T16:22:27;-4.50;99.90
45549;DHT22;31270;48.328;10.096;2022-12-18T16:24:54;-4.60;99.90
45549;DHT22;31270;48.328;10.096;2022-12-18T16:27:21;-4.60;99.90
45549;DHT22;31270;48.328;10.096;2022-12-18T16:29:48;-4.60;99.90
45549;DHT22;31270;48.328;10.096;2022-12-18T16:32:19;-4.60;99.90
45549;DHT22;31270;48.328;10.096;2022-12-18T16:34:45;-4.50;99.90
45549;DHT22;31270;48.328;10.096;2022-12-18T16:37:13;-4.60;99.90
45549;DHT22;31270;48.328;10.096;2022-12-18T16:39:39;-4.60;99.90
45549;DHT22;31270;48.328;10.096;2022-12-18T16:42:14;-4.50;99.90
45549;DHT22;31270;48.328;10.096;2022-12-18T16:44:42;-4.50;99.90
45549;DHT22;31270;48.328;10.096;2022-12-18T16:47:09;-4.60;99.90
45549;DHT22;31270;48.328;10.096;2022-12-18T16:49:35;-4.60;99.90
45549;DHT22;31270;48.328;10.096;2022-12-18T16:52:01;-4.60;99.90
45549;DHT22;31270;48.328;10.096;2022-12-18T16:54:26;-4.60;99.90
45549;DHT22;31270;48.328;10.096;2022-12-18T16:56:55;-4.50;99.90
45549;DHT22;31270;48.328;10.096;2022-12-18T16:59:20;-4.50;99.90
45549;DHT22;31270;48.328;10.096;2022-12-18T17:01:46;-4.50;99.90
45549;DHT22;31270;48.328;10.096;2022-12-18T17:04:12;-4.60;99.90